sensor_id;sensor_type;location;lat;lon;timestamp;temperature;humidity
65074;DHT22;52218;51.224;-2.328;2023-02-08T00:02:20;-2.20;99.90
65074;DHT22;52218;51.224;-2.328;2023-02-08T00:06:03;-2.20;99.90
65074;DHT22;52218;51.224;-2.328;2023-02-08T00:09:45;-2.30;99.90
65074;DHT22;52218;51.224;-2.328;2023-02-08T00:13:27;-2.30;99.90
65074;DHT22;52218;51.224;-2.328;2023-02-08T00:17:09;-2.20;99.90
65074;DHT22;52218;51.224;-2.328;2023-02-08T00:20:51;-2.30;99.90
65074;DHT22;52218;51.224;-2.328;2023-02-08T00:24:33;-2.30;99.90
65074;DHT22;52218;51.224;-2.328;2023-02-08T00:28:17;-2.40;99.90
65074;DHT22;52218;51.224;-2.328;2023-02-08T00:31:59;-2.30;99.90
65074;DHT22;52218;51.224;-2.328;2023-02-08T00:35:41;-2.30;99.90
65074;DHT22;52218;51.224;-2.328;2023-02-08T00:39:23;-2.40;99.90
65074;DHT22;52218;51.224;-2.328;2023-02-08T00:43:05;-2.40;99.90
65074;DHT22;52218;51.224;-2.328;2023-02-08T00:46:47;-2.40;99.90
65074;DHT22;52218;51.224;-2.328;2023-02-08T00:50:29;-2.50;99.90
65074;DHT22;52218;51.224;-2.328;2023-02-08T00:54:16;-2.50;99.90
65074;DHT22;52218;51.224;-2.328;2023-02-08T00:57:58;-2.50;99.90
65074;DHT22;52218;51.224;-2.328;2023-02-08T01:01:40;-2.60;99.90
65074;DHT22;52218;51.224;-2.328;2023-02-08T01:05:23;-2.60;99.90
65074;DHT22;52218;51.224;-2.328;2023-02-08T01:09:05;-2.60;99.90
65074;DHT22;52218;51.224;-2.328;2023-02-08T01:12:47;-2.60;99.90
65074;DHT22;52218;51.224;-2.328;2023-02-08T01:16:31;-2.60;99.90
65074;DHT22;52218;51.224;-2.328;2023-02-08T01:20:13;-2.60;99.90
65074;DHT22;52218;51.224;-2.328;2023-02-08T01:23:55;-2.60;99.90
65074;DHT22;52218;51.224;-2.328;2023-02-08T01:27:37;-2.60;99.90
65074;DHT22;52218;51.224;-2.328;2023-02-08T01:31:25;-2.60;99.90
65074;DHT22;52218;51.224;-2.328;2023-02-08T01:35:09;-2.60;99.90
65074;DHT22;52218;51.224;-2.328;2023-02-08T01:38:51;-2.60;99.90
65074;DHT22;52218;51.224;-2.328;2023-02-08T01:42:33;-2.50;99.90
65074;DHT22;52218;51.224;-2.328;2023-02-08T01:46:15;-2.60;99.90
65074;DHT22;52218;51.224;-2.328;2023-02-08T01:49:58;-2.60;99.90
65074;DHT22;52218;51.224;-2.328;2023-02-08T01:53:40;-2.60;99.90
65074;DHT22;52218;51.224;-2.328;2023-02-08T01:57:24;-2.60;99.90
65074;DHT22;52218;51.224;-2.328;2023-02-08T02:01:07;-2.60;99.90
65074;DHT22;52218;51.224;-2.328;2023-02-08T02:04:50;-2.60;99.90
65074;DHT22;52218;51.224;-2.328;2023-02-08T02:08:33;-2.60;99.90
65074;DHT22;52218;51.224;-2.328;2023-02-08T02:12:15;-2.60;99.90
65074;DHT22;52218;51.224;-2.328;2023-02-08T02:15:58;-2.60;99.90
65074;DHT22;52218;51.224;-2.328;2023-02-08T02:28:13;-2.70;99.90
65074;DHT22;52218;51.224;-2.328;2023-02-08T02:39:49;-2.80;99.90
65074;DHT22;52218;51.224;-2.328;2023-02-08T02:43:46;-2.80;99.90
65074;DHT22;52218;51.224;-2.328;2023-02-08T02:48:25;-2.90;99.90
65074;DHT22;52218;51.224;-2.328;2023-02-08T02:51:55;-2.90;99.90
65074;DHT22;52218;51.224;-2.328;2023-02-08T02:55:47;-2.90;99.90
65074;DHT22;52218;51.224;-2.328;2023-02-08T02:59:32;-3.00;99.90
65074;DHT22;52218;51.224;-2.328;2023-02-08T03:03:22;-3.00;99.90
65074;DHT22;52218;51.224;-2.328;2023-02-08T03:07:21;-3.00;99.90
65074;DHT22;52218;51.224;-2.328;2023-02-08T03:11:21;-3.10;99.90
65074;DHT22;52218;51.224;-2.328;2023-02-08T03:19:19;-3.10;99.90
65074;DHT22;52218;51.224;-2.328;2023-02-08T03:23:24;-3.20;99.90
65074;DHT22;52218;51.224;-2.328;2023-02-08T03:31:05;-3.30;99.90
65074;DHT22;52218;51.224;-2.328;2023-02-08T03:34:56;-3.30;99.90
65074;DHT22;52218;51.224;-2.328;2023-02-08T03:38:42;-3.30;99.90
65074;DHT22;52218;51.224;-2.328;2023-02-08T03:42:27;-3.40;99.90
65074;DHT22;52218;51.224;-2.328;2023-02-08T03:46:16;-3.40;99.90
65074;DHT22;52218;51.224;-2.328;2023-02-08T03:50:04;-3.40;99.90
65074;DHT22;52218;51.224;-2.328;2023-02-08T03:53:48;-3.40;99.90
65074;DHT22;52218;51.224;-2.328;2023-02-08T03:57:41;-3.50;99.90
65074;DHT22;52218;51.224;-2.328;2023-02-08T04:01:58;-3.50;99.90
65074;DHT22;52218;51.224;-2.328;2023-02-08T04:05:40;-3.50;99.90
65074;DHT22;52218;51.224;-2.328;2023-02-08T04:09:23;-3.60;99.90
65074;DHT22;52218;51.224;-2.328;2023-02-08T04:13:08;-3.60;99.90
65074;DHT22;52218;51.224;-2.328;2023-02-08T04:16:51;-3.60;99.90
65074;DHT22;52218;51.224;-2.328;2023-02-08T04:20:33;-3.60;99.90
65074;DHT22;52218;51.224;-2.328;2023-02-08T04:24:15;-3.50;99.90
65074;DHT22;52218;51.224;-2.328;2023-02-08T04:27:57;-3.60;99.90
65074;DHT22;52218;51.224;-2.328;2023-02-08T04:31:39;-3.50;99.90
65074;DHT22;52218;51.224;-2.328;2023-02-08T04:35:21;-3.60;99.90
65074;DHT22;52218;51.224;-2.328;2023-02-08T04:39:03;-3.50;99.90
65074;DHT22;52218;51.224;-2.328;2023-02-08T04:42:45;-3.50;99.90
65074;DHT22;52218;51.224;-2.328;2023-02-08T04:46:27;-3.60;99.90
65074;DHT22;52218;51.224;-2.328;2023-02-08T04:50:09;-3.60;99.90
65074;DHT22;52218;51.224;-2.328;2023-02-08T04:53:51;-3.60;99.90
65074;DHT22;52218;51.224;-2.328;2023-02-08T04:57:33;-3.70;99.90
65074;DHT22;52218;51.224;-2.328;2023-02-08T05:01:15;-3.70;99.90
65074;DHT22;52218;51.224;-2.328;2023-02-08T05:04:57;-3.60;99.90
65074;DHT22;52218;51.224;-2.328;2023-02-08T05:08:39;-3.60;99.90
65074;DHT22;52218;51.224;-2.328;2023-02-08T05:12:21;-3.60;99.90
65074;DHT22;52218;51.224;-2.328;2023-02-08T05:16:03;-3.60;99.90
65074;DHT22;52218;51.224;-2.328;2023-02-08T05:19:45;-3.60;99.90
65074;DHT22;52218;51.224;-2.328;2023-02-08T05:23:28;-3.60;99.90
65074;DHT22;52218;51.224;-2.328;2023-02-08T05:27:11;-3.70;99.90
65074;DHT22;52218;51.224;-2.328;2023-02-08T05:30:53;-3.70;99.90
65074;DHT22;52218;51.224;-2.328;2023-02-08T05:34:36;-3.70;99.90
65074;DHT22;52218;51.224;-2.328;2023-02-08T05:38:18;-3.70;99.90
65074;DHT22;52218;51.224;-2.328;2023-02-08T05:42:00;-3.70;99.90
65074;DHT22;52218;51.224;-2.328;2023-02-08T05:45:42;-3.70;99.90
65074;DHT22;52218;51.224;-2.328;2023-02-08T05:49:24;-3.80;99.90
65074;DHT22;52218;51.224;-2.328;2023-02-08T05:53:06;-3.80;99.90
65074;DHT22;52218;51.224;-2.328;2023-02-08T05:56:48;-3.80;99.90
65074;DHT22;52218;51.224;-2.328;2023-02-08T06:00:30;-3.80;99.90
65074;DHT22;52218;51.224;-2.328;2023-02-08T06:04:12;-3.90;99.90
65074;DHT22;52218;51.224;-2.328;2023-02-08T06:07:54;-3.90;99.90
65074;DHT22;52218;51.224;-2.328;2023-02-08T06:11:37;-3.90;99.90
65074;DHT22;52218;51.224;-2.328;2023-02-08T06:15:19;-3.80;99.90
65074;DHT22;52218;51.224;-2.328;2023-02-08T06:19:01;-3.80;99.90
65074;DHT22;52218;51.224;-2.328;2023-02-08T06:22:43;-3.80;99.90
65074;DHT22;52218;51.224;-2.328;2023-02-08T06:26:25;-3.80;99.90
65074;DHT22;52218;51.224;-2.328;2023-02-08T06:30:08;-3.80;99.90
65074;DHT22;52218;51.224;-2.328;2023-02-08T06:33:50;-3.80;99.90
65074;DHT22;52218;51.224;-2.328;2023-02-08T06:37:32;-3.80;99.90
65074;DHT22;52218;51.224;-2.328;2023-02-08T06:41:14;-3.70;99.90
65074;DHT22;52218;51.224;-2.328;2023-02-08T06:44:56;-3.70;99.90
65074;DHT22;52218;51.224;-2.328;2023-02-08T06:48:39;-3.60;99.90
65074;DHT22;52218;51.224;-2.328;2023-02-08T06:52:21;-3.70;99.90
65074;DHT22;52218;51.224;-2.328;2023-02-08T06:56:03;-3.70;99.90
65074;DHT22;52218;51.224;-2.328;2023-02-08T06:59:45;-3.80;99.90
65074;DHT22;52218;51.224;-2.328;2023-02-08T07:03:27;-3.80;99.90
65074;DHT22;52218;51.224;-2.328;2023-02-08T07:07:10;-3.90;99.90
65074;DHT22;52218;51.224;-2.328;2023-02-08T07:10:52;-4.00;99.90
65074;DHT22;52218;51.224;-2.328;2023-02-08T07:14:37;-4.00;99.90
65074;DHT22;52218;51.224;-2.328;2023-02-08T07:18:19;-4.00;99.90
65074;DHT22;52218;51.224;-2.328;2023-02-08T07:22:01;-4.10;99.90
65074;DHT22;52218;51.224;-2.328;2023-02-08T07:26:04;-4.10;99.90
65074;DHT22;52218;51.224;-2.328;2023-02-08T07:29:46;-4.10;99.90
65074;DHT22;52218;51.224;-2.328;2023-02-08T07:33:28;-4.20;99.90
65074;DHT22;52218;51.224;-2.328;2023-02-08T07:37:10;-4.30;99.90
65074;DHT22;52218;51.224;-2.328;2023-02-08T07:41:02;-4.30;99.90
65074;DHT22;52218;51.224;-2.328;2023-02-08T07:44:44;-4.30;99.90
65074;DHT22;52218;51.224;-2.328;2023-02-08T07:48:26;-4.40;99.90
65074;DHT22;52218;51.224;-2.328;2023-02-08T07:52:08;-4.40;99.90
65074;DHT22;52218;51.224;-2.328;2023-02-08T07:55:50;-4.40;99.90
65074;DHT22;52218;51.224;-2.328;2023-02-08T07:59:33;-4.40;99.90
65074;DHT22;52218;51.224;-2.328;2023-02-08T08:03:16;-4.40;99.90
65074;DHT22;52218;51.224;-2.328;2023-02-08T08:06:58;-4.50;99.90
65074;DHT22;52218;51.224;-2.328;2023-02-08T08:10:40;-4.40;99.90
65074;DHT22;52218;51.224;-2.328;2023-02-08T08:14:22;-4.40;99.90
65074;DHT22;52218;51.224;-2.328;2023-02-08T08:18:04;-4.40;99.90
65074;DHT22;52218;51.224;-2.328;2023-02-08T08:21:46;-4.40;99.90
65074;DHT22;52218;51.224;-2.328;2023-02-08T08:25:28;-4.30;99.90
65074;DHT22;52218;51.224;-2.328;2023-02-08T08:29:10;-4.20;99.90
65074;DHT22;52218;51.224;-2.328;2023-02-08T08:32:52;-4.10;99.90
65074;DHT22;52218;51.224;-2.328;2023-02-08T08:36:34;-4.00;99.90
65074;DHT22;52218;51.224;-2.328;2023-02-08T08:40:16;-3.80;99.90
65074;DHT22;52218;51.224;-2.328;2023-02-08T08:43:58;-3.50;99.90
65074;DHT22;52218;51.224;-2.328;2023-02-08T08:47:40;-3.20;99.90
65074;DHT22;52218;51.224;-2.328;2023-02-08T08:51:23;-3.00;99.90
65074;DHT22;52218;51.224;-2.328;2023-02-08T08:55:07;-2.80;99.90
65074;DHT22;52218;51.224;-2.328;2023-02-08T08:58:49;-2.70;99.90
65074;DHT22;52218;51.224;-2.328;2023-02-08T09:02:31;-2.60;99.90
65074;DHT22;52218;51.224;-2.328;2023-02-08T09:06:14;-2.60;99.90
65074;DHT22;52218;51.224;-2.328;2023-02-08T09:09:56;-2.40;99.90
65074;DHT22;52218;51.224;-2.328;2023-02-08T09:13:38;-2.10;99.90
65074;DHT22;52218;51.224;-2.328;2023-02-08T09:17:20;-2.10;99.90
65074;DHT22;52218;51.224;-2.328;2023-02-08T09:21:13;-2.00;99.90
65074;DHT22;52218;51.224;-2.328;2023-02-08T09:24:56;-2.00;99.90
65074;DHT22;52218;51.224;-2.328;2023-02-08T09:28:38;-1.90;99.90
65074;DHT22;52218;51.224;-2.328;2023-02-08T09:32:20;-1.90;99.90
65074;DHT22;52218;51.224;-2.328;2023-02-08T09:36:04;-1.90;99.90
65074;DHT22;52218;51.224;-2.328;2023-02-08T09:39:46;-1.70;99.90
65074;DHT22;52218;51.224;-2.328;2023-02-08T09:51:09;-1.30;99.90
65074;DHT22;52218;51.224;-2.328;2023-02-08T09:55:00;-1.20;99.90
65074;DHT22;52218;51.224;-2.328;2023-02-08T09:58:46;-0.80;99.90
65074;DHT22;52218;51.224;-2.328;2023-02-08T10:02:31;-0.50;99.90
65074;DHT22;52218;51.224;-2.328;2023-02-08T10:06:15;-0.30;99.90
65074;DHT22;52218;51.224;-2.328;2023-02-08T10:10:01;-0.20;99.90
65074;DHT22;52218;51.224;-2.328;2023-02-08T10:25:26;1.50;99.90
65074;DHT22;52218;51.224;-2.328;2023-02-08T10:29:51;1.80;99.90
65074;DHT22;52218;51.224;-2.328;2023-02-08T10:34:03;2.30;99.90
65074;DHT22;52218;51.224;-2.328;2023-02-08T10:38:00;2.80;99.90
65074;DHT22;52218;51.224;-2.328;2023-02-08T10:41:42;3.20;99.90
65074;DHT22;52218;51.224;-2.328;2023-02-08T10:45:51;3.70;99.90
65074;DHT22;52218;51.224;-2.328;2023-02-08T10:53:30;5.60;99.90
65074;DHT22;52218;51.224;-2.328;2023-02-08T10:57:17;6.70;99.90
65074;DHT22;52218;51.224;-2.328;2023-02-08T11:01:00;7.70;99.90
65074;DHT22;52218;51.224;-2.328;2023-02-08T11:04:59;8.30;99.90
65074;DHT22;52218;51.224;-2.328;2023-02-08T11:08:54;8.50;99.90
65074;DHT22;52218;51.224;-2.328;2023-02-08T11:12:36;8.40;99.90
65074;DHT22;52218;51.224;-2.328;2023-02-08T11:16:24;8.50;99.90
65074;DHT22;52218;51.224;-2.328;2023-02-08T11:20:20;8.40;99.90
65074;DHT22;52218;51.224;-2.328;2023-02-08T11:24:24;8.20;99.90
65074;DHT22;52218;51.224;-2.328;2023-02-08T11:28:26;7.90;99.90
65074;DHT22;52218;51.224;-2.328;2023-02-08T11:32:19;7.60;99.90
65074;DHT22;52218;51.224;-2.328;2023-02-08T11:36:06;7.30;99.90
65074;DHT22;52218;51.224;-2.328;2023-02-08T11:40:00;7.70;99.90
65074;DHT22;52218;51.224;-2.328;2023-02-08T11:43:43;8.30;99.90
65074;DHT22;52218;51.224;-2.328;2023-02-08T11:47:39;8.50;99.90
65074;DHT22;52218;51.224;-2.328;2023-02-08T11:51:27;8.70;99.90
65074;DHT22;52218;51.224;-2.328;2023-02-08T11:55:31;9.10;99.90
65074;DHT22;52218;51.224;-2.328;2023-02-08T11:59:18;9.50;99.90
65074;DHT22;52218;51.224;-2.328;2023-02-08T12:03:18;9.80;99.90
65074;DHT22;52218;51.224;-2.328;2023-02-08T12:19:06;14.20;99.90
65074;DHT22;52218;51.224;-2.328;2023-02-08T12:27:34;15.70;99.90
65074;DHT22;52218;51.224;-2.328;2023-02-08T12:31:22;16.30;99.90
65074;DHT22;52218;51.224;-2.328;2023-02-08T12:48:26;17.40;98.20
65074;DHT22;52218;51.224;-2.328;2023-02-08T12:52:35;17.50;97.70
65074;DHT22;52218;51.224;-2.328;2023-02-08T12:56:25;17.40;94.90
65074;DHT22;52218;51.224;-2.328;2023-02-08T13:00:18;17.30;94.80
65074;DHT22;52218;51.224;-2.328;2023-02-08T13:04:13;17.30;95.20
65074;DHT22;52218;51.224;-2.328;2023-02-08T13:08:26;17.30;96.20
65074;DHT22;52218;51.224;-2.328;2023-02-08T13:12:20;17.40;97.10
65074;DHT22;52218;51.224;-2.328;2023-02-08T13:16:22;17.30;94.30
65074;DHT22;52218;51.224;-2.328;2023-02-08T13:24:24;16.60;95.70
65074;DHT22;52218;51.224;-2.328;2023-02-08T13:28:11;16.60;94.60
65074;DHT22;52218;51.224;-2.328;2023-02-08T13:32:10;16.60;92.40
65074;DHT22;52218;51.224;-2.328;2023-02-08T13:35:56;16.30;92.30
65074;DHT22;52218;51.224;-2.328;2023-02-08T13:39:43;15.90;92.40
65074;DHT22;52218;51.224;-2.328;2023-02-08T13:43:35;15.70;91.80
65074;DHT22;52218;51.224;-2.328;2023-02-08T13:47:30;15.50;91.80
65074;DHT22;52218;51.224;-2.328;2023-02-08T13:59:31;16.40;92.00
65074;DHT22;52218;51.224;-2.328;2023-02-08T14:07:01;16.40;90.00
65074;DHT22;52218;51.224;-2.328;2023-02-08T14:11:02;16.20;90.30
65074;DHT22;52218;51.224;-2.328;2023-02-08T14:15:06;15.90;90.00
65074;DHT22;52218;51.224;-2.328;2023-02-08T14:19:20;15.40;92.40
65074;DHT22;52218;51.224;-2.328;2023-02-08T14:23:01;15.30;90.40
65074;DHT22;52218;51.224;-2.328;2023-02-08T14:26:44;15.30;88.50
65074;DHT22;52218;51.224;-2.328;2023-02-08T14:30:33;15.20;86.90
65074;DHT22;52218;51.224;-2.328;2023-02-08T14:34:29;14.90;87.40
65074;DHT22;52218;51.224;-2.328;2023-02-08T14:42:02;14.50;91.10
65074;DHT22;52218;51.224;-2.328;2023-02-08T14:45:52;13.70;93.20
65074;DHT22;52218;51.224;-2.328;2023-02-08T14:49:38;12.70;94.80
65074;DHT22;52218;51.224;-2.328;2023-02-08T14:53:38;12.00;96.60
65074;DHT22;52218;51.224;-2.328;2023-02-08T14:57:28;11.50;98.10
65074;DHT22;52218;51.224;-2.328;2023-02-08T15:05:20;10.60;99.70
65074;DHT22;52218;51.224;-2.328;2023-02-08T15:09:04;10.20;99.90
65074;DHT22;52218;51.224;-2.328;2023-02-08T15:13:16;10.00;99.90
65074;DHT22;52218;51.224;-2.328;2023-02-08T15:16:59;9.70;99.90
65074;DHT22;52218;51.224;-2.328;2023-02-08T15:20:42;9.50;99.90
65074;DHT22;52218;51.224;-2.328;2023-02-08T15:24:25;9.30;99.90
65074;DHT22;52218;51.224;-2.328;2023-02-08T15:28:21;9.20;99.90
65074;DHT22;52218;51.224;-2.328;2023-02-08T15:32:11;9.10;99.90
65074;DHT22;52218;51.224;-2.328;2023-02-08T15:36:04;9.00;99.90
65074;DHT22;52218;51.224;-2.328;2023-02-08T15:39:54;8.90;99.90
65074;DHT22;52218;51.224;-2.328;2023-02-08T15:43:38;8.80;99.90
65074;DHT22;52218;51.224;-2.328;2023-02-08T15:47:33;8.70;99.90
65074;DHT22;52218;51.224;-2.328;2023-02-08T15:51:17;8.60;99.90
65074;DHT22;52218;51.224;-2.328;2023-02-08T15:55:01;8.50;99.90
65074;DHT22;52218;51.224;-2.328;2023-02-08T15:58:52;8.40;99.90
65074;DHT22;52218;51.224;-2.328;2023-02-08T16:02:36;8.30;99.90
65074;DHT22;52218;51.224;-2.328;2023-02-08T16:06:28;8.20;99.90
65074;DHT22;52218;51.224;-2.328;2023-02-08T16:10:24;8.00;99.90
65074;DHT22;52218;51.224;-2.328;2023-02-08T16:14:14;7.90;99.90
65074;DHT22;52218;51.224;-2.328;2023-02-08T16:17:57;7.70;99.90
65074;DHT22;52218;51.224;-2.328;2023-02-08T16:21:40;7.60;99.90
65074;DHT22;52218;51.224;-2.328;2023-02-08T16:25:31;7.50;99.90
65074;DHT22;52218;51.224;-2.328;2023-02-08T16:29:25;7.40;99.90
65074;DHT22;52218;51.224;-2.328;2023-02-08T16:33:08;7.30;99.90
65074;DHT22;52218;51.224;-2.328;2023-02-08T16:36:51;7.20;99.90
65074;DHT22;52218;51.224;-2.328;2023-02-08T16:48:32;6.90;99.90
65074;DHT22;52218;51.224;-2.328;2023-02-08T16:52:16;6.80;99.90
65074;DHT22;52218;51.224;-2.328;2023-02-08T16:55:59;6.70;99.90
65074;DHT22;52218;51.224;-2.328;2023-02-08T16:59:41;6.60;99.90
65074;DHT22;52218;51.224;-2.328;2023-02-08T17:03:23;6.40;99.90
65074;DHT22;52218;51.224;-2.328;2023-02-08T17:07:08;6.30;99.90
65074;DHT22;52218;51.224;-2.328;2023-02-08T17:10:51;6.30;99.90
65074;DHT22;52218;51.224;-2.328;2023-02-08T17:14:39;6.20;99.90
65074;DHT22;52218;51.224;-2.328;2023-02-08T17:18:21;6.10;99.90
65074;DHT22;52218;51.224;-2.328;2023-02-08T17:22:03;6.00;99.90
65074;DHT22;52218;51.224;-2.328;2023-02-08T17:25:45;5.90;99.90
65074;DHT22;52218;51.224;-2.328;2023-02-08T17:29:28;5.90;99.90
65074;DHT22;52218;51.224;-2.328;2023-02-08T17:33:11;5.80;99.90
65074;DHT22;52218;51.224;-2.328;2023-02-08T17:36:59;5.80;99.90
65074;DHT22;52218;51.224;-2.328;2023-02-08T17:40:41;5.60;99.90
65074;DHT22;52218;51.224;-2.328;2023-02-08T17:44:23;5.50;99.90
65074;DHT22;52218;51.224;-2.328;2023-02-08T17:48:06;5.50;99.90
65074;DHT22;52218;51.224;-2.328;2023-02-08T17:51:48;5.40;99.90
65074;DHT22;52218;51.224;-2.328;2023-02-08T17:55:30;5.30;99.90
65074;DHT22;52218;51.224;-2.328;2023-02-08T17:59:12;5.20;99.90
65074;DHT22;52218;51.224;-2.328;2023-02-08T18:02:54;5.10;99.90
65074;DHT22;52218;51.224;-2.328;2023-02-08T18:06:39;5.10;99.90
65074;DHT22;52218;51.224;-2.328;2023-02-08T18:10:22;5.00;99.90
65074;DHT22;52218;51.224;-2.328;2023-02-08T18:14:04;4.80;99.90
65074;DHT22;52218;51.224;-2.328;2023-02-08T18:17:46;4.70;99.90
65074;DHT22;52218;51.224;-2.328;2023-02-08T18:21:29;4.60;99.90
65074;DHT22;52218;51.224;-2.328;2023-02-08T18:25:14;4.40;99.90
65074;DHT22;52218;51.224;-2.328;2023-02-08T18:28:57;4.30;99.90
65074;DHT22;52218;51.224;-2.328;2023-02-08T18:32:39;4.20;99.90
65074;DHT22;52218;51.224;-2.328;2023-02-08T18:36:22;4.10;99.90
65074;DHT22;52218;51.224;-2.328;2023-02-08T18:40:06;4.00;99.90
65074;DHT22;52218;51.224;-2.328;2023-02-08T18:43:49;3.90;99.90
65074;DHT22;52218;51.224;-2.328;2023-02-08T18:47:34;3.80;99.90
65074;DHT22;52218;51.224;-2.328;2023-02-08T18:51:17;3.80;99.90
65074;DHT22;52218;51.224;-2.328;2023-02-08T18:55:00;3.70;99.90
65074;DHT22;52218;51.224;-2.328;2023-02-08T18:58:42;3.60;99.90
65074;DHT22;52218;51.224;-2.328;2023-02-08T19:02:24;3.50;99.90
65074;DHT22;52218;51.224;-2.328;2023-02-08T19:06:16;3.40;99.90
65074;DHT22;52218;51.224;-2.328;2023-02-08T19:09:59;3.40;99.90
65074;DHT22;52218;51.224;-2.328;2023-02-08T19:13:41;3.30;99.90
65074;DHT22;52218;51.224;-2.328;2023-02-08T19:17:23;3.20;99.90
65074;DHT22;52218;51.224;-2.328;2023-02-08T19:21:11;3.20;99.90
65074;DHT22;52218;51.224;-2.328;2023-02-08T19:24:53;3.10;99.90
65074;DHT22;52218;51.224;-2.328;2023-02-08T19:28:35;3.10;99.90
65074;DHT22;52218;51.224;-2.328;2023-02-08T19:32:17;3.10;99.90
65074;DHT22;52218;51.224;-2.328;2023-02-08T19:36:08;3.20;99.90
65074;DHT22;52218;51.224;-2.328;2023-02-08T19:39:51;3.20;99.90
65074;DHT22;52218;51.224;-2.328;2023-02-08T19:43:33;3.30;99.90
65074;DHT22;52218;51.224;-2.328;2023-02-08T19:47:15;3.40;99.90
65074;DHT22;52218;51.224;-2.328;2023-02-08T19:50:59;3.50;99.90
65074;DHT22;52218;51.224;-2.328;2023-02-08T19:54:41;3.50;99.90
65074;DHT22;52218;51.224;-2.328;2023-02-08T19:58:23;3.50;99.90
65074;DHT22;52218;51.224;-2.328;2023-02-08T20:02:09;3.60;99.90
65074;DHT22;52218;51.224;-2.328;2023-02-08T20:05:52;3.60;99.90
65074;DHT22;52218;51.224;-2.328;2023-02-08T20:09:35;3.60;99.90
65074;DHT22;52218;51.224;-2.328;2023-02-08T20:13:18;3.60;99.90
65074;DHT22;52218;51.224;-2.328;2023-02-08T20:17:00;3.70;99.90
65074;DHT22;52218;51.224;-2.328;2023-02-08T20:20:43;3.70;99.90
65074;DHT22;52218;51.224;-2.328;2023-02-08T20:24:25;3.70;99.90
65074;DHT22;52218;51.224;-2.328;2023-02-08T20:28:07;3.60;99.90
65074;DHT22;52218;51.224;-2.328;2023-02-08T20:31:49;3.60;99.90
65074;DHT22;52218;51.224;-2.328;2023-02-08T20:35:36;3.50;99.90
65074;DHT22;52218;51.224;-2.328;2023-02-08T20:39:18;3.60;99.90
65074;DHT22;52218;51.224;-2.328;2023-02-08T20:43:01;3.70;99.90
65074;DHT22;52218;51.224;-2.328;2023-02-08T20:46:43;3.80;99.90
65074;DHT22;52218;51.224;-2.328;2023-02-08T20:50:25;3.90;99.90
65074;DHT22;52218;51.224;-2.328;2023-02-08T20:54:09;4.00;99.90
65074;DHT22;52218;51.224;-2.328;2023-02-08T20:57:51;4.10;99.90
65074;DHT22;52218;51.224;-2.328;2023-02-08T21:01:34;4.10;99.90
65074;DHT22;52218;51.224;-2.328;2023-02-08T21:05:16;4.20;99.90
65074;DHT22;52218;51.224;-2.328;2023-02-08T21:09:02;4.20;99.90
65074;DHT22;52218;51.224;-2.328;2023-02-08T21:12:44;4.20;99.90
65074;DHT22;52218;51.224;-2.328;2023-02-08T21:16:26;4.20;99.90
65074;DHT22;52218;51.224;-2.328;2023-02-08T21:20:09;4.20;99.90
65074;DHT22;52218;51.224;-2.328;2023-02-08T21:23:52;4.20;99.90
65074;DHT22;52218;51.224;-2.328;2023-02-08T21:27:34;4.30;99.90
65074;DHT22;52218;51.224;-2.328;2023-02-08T21:31:18;4.40;99.90
65074;DHT22;52218;51.224;-2.328;2023-02-08T21:35:03;4.40;99.90
65074;DHT22;52218;51.224;-2.328;2023-02-08T21:38:45;4.50;99.90
65074;DHT22;52218;51.224;-2.328;2023-02-08T21:42:27;4.50;99.90
65074;DHT22;52218;51.224;-2.328;2023-02-08T21:46:09;4.60;99.90
65074;DHT22;52218;51.224;-2.328;2023-02-08T21:49:52;4.60;99.90
65074;DHT22;52218;51.224;-2.328;2023-02-08T21:53:52;4.60;99.90
65074;DHT22;52218;51.224;-2.328;2023-02-08T21:57:53;4.70;99.90
65074;DHT22;52218;51.224;-2.328;2023-02-08T22:01:35;4.70;99.90
65074;DHT22;52218;51.224;-2.328;2023-02-08T22:05:17;4.80;99.90
65074;DHT22;52218;51.224;-2.328;2023-02-08T22:09:18;4.80;99.90
65074;DHT22;52218;51.224;-2.328;2023-02-08T22:13:01;4.80;99.90
65074;DHT22;52218;51.224;-2.328;2023-02-08T22:16:43;4.90;99.90
65074;DHT22;52218;51.224;-2.328;2023-02-08T22:20:25;4.90;99.90
65074;DHT22;52218;51.224;-2.328;2023-02-08T22:24:07;5.00;99.90
65074;DHT22;52218;51.224;-2.328;2023-02-08T22:27:49;5.00;99.90
65074;DHT22;52218;51.224;-2.328;2023-02-08T22:31:31;5.00;99.90
65074;DHT22;52218;51.224;-2.328;2023-02-08T22:35:16;5.00;99.90
65074;DHT22;52218;51.224;-2.328;2023-02-08T22:38:58;5.00;99.90
65074;DHT22;52218;51.224;-2.328;2023-02-08T22:42:41;5.00;99.90
65074;DHT22;52218;51.224;-2.328;2023-02-08T22:46:23;5.00;99.90
65074;DHT22;52218;51.224;-2.328;2023-02-08T22:50:06;4.90;99.90
65074;DHT22;52218;51.224;-2.328;2023-02-08T22:53:48;4.90;99.90
65074;DHT22;52218;51.224;-2.328;2023-02-08T22:57:31;4.80;99.90
65074;DHT22;52218;51.224;-2.328;2023-02-08T23:01:15;4.80;99.90
65074;DHT22;52218;51.224;-2.328;2023-02-08T23:04:57;4.70;99.90
65074;DHT22;52218;51.224;-2.328;2023-02-08T23:08:39;4.70;99.90
65074;DHT22;52218;51.224;-2.328;2023-02-08T23:12:24;4.70;99.90
65074;DHT22;52218;51.224;-2.328;2023-02-08T23:16:06;4.60;99.90
65074;DHT22;52218;51.224;-2.328;2023-02-08T23:19:48;4.60;99.90
65074;DHT22;52218;51.224;-2.328;2023-02-08T23:23:33;4.50;99.90
65074;DHT22;52218;51.224;-2.328;2023-02-08T23:27:15;4.40;99.90
65074;DHT22;52218;51.224;-2.328;2023-02-08T23:30:57;4.30;99.90
65074;DHT22;52218;51.224;-2.328;2023-02-08T23:34:39;4.10;99.90
65074;DHT22;52218;51.224;-2.328;2023-02-08T23:38:21;4.00;99.90
65074;DHT22;52218;51.224;-2.328;2023-02-08T23:42:03;4.00;99.90
65074;DHT22;52218;51.224;-2.328;2023-02-08T23:45:46;3.90;99.90
65074;DHT22;52218;51.224;-2.328;2023-02-08T23:49:28;3.70;99.90
65074;DHT22;52218;51.224;-2.328;2023-02-08T23:53:10;3.70;99.90
65074;DHT22;52218;51.224;-2.328;2023-02-08T23:56:52;3.60;99.90
